Time;durP1;ratioP1;P1;durP2;ratioP2;P2;SDS_P1;SDS_P2;PMS_P1;PMS_P2;Temp;Humidity;BMP_temperature;BMP_pressure;BME280_temperature;BME280_humidity;BME280_pressure;Samples;Min_cycle;Max_cycle;Signal;HPM_P1;HPM_P2
2021/12/26 00:02:19;;;;;;;14.40;6.87;;;4.20;99.90;;;;;;5097912;28;20051;-83
2021/12/26 00:04:47;;;;;;;10.80;6.47;;;4.10;99.90;;;;;;5097455;28;20024;-84
2021/12/26 00:07:13;;;;;;;13.70;7.20;;;4.10;99.90;;;;;;5098172;28;20126;-83
2021/12/26 00:09:38;;;;;;;10.63;5.70;;;4.00;99.90;;;;;;5115278;28;20157;-84
2021/12/26 00:12:05;;;;;;;12.20;6.93;;;4.10;99.90;;;;;;5097704;28;20024;-84
2021/12/26 00:14:30;;;;;;;11.73;6.83;;;4.00;99.90;;;;;;5098218;28;20023;-83
2021/12/26 00:16:57;;;;;;;11.70;6.73;;;4.10;99.90;;;;;;5097405;28;20464;-84
2021/12/26 00:19:22;;;;;;;9.47;5.70;;;4.10;99.90;;;;;;5115829;28;20027;-84
2021/12/26 00:21:48;;;;;;;11.50;6.83;;;4.10;99.90;;;;;;5096997;28;20126;-84
2021/12/26 00:24:14;;;;;;;11.50;6.37;;;4.00;99.90;;;;;;5097900;28;20055;-84
2021/12/26 00:26:40;;;;;;;10.30;6.17;;;4.00;99.90;;;;;;5114732;28;20027;-84
2021/12/26 00:29:05;;;;;;;9.07;5.87;;;4.00;99.90;;;;;;5115734;28;20024;-84
2021/12/26 00:31:32;;;;;;;10.53;6.37;;;4.00;99.90;;;;;;5097374;28;20027;-83
2021/12/26 00:33:58;;;;;;;10.47;6.20;;;4.00;99.90;;;;;;5096771;28;20028;-83
2021/12/26 00:36:23;;;;;;;11.40;6.50;;;3.90;99.90;;;;;;5115331;28;20028;-83
2021/12/26 00:38:49;;;;;;;9.00;5.37;;;4.00;99.90;;;;;;5114233;28;20478;-84
2021/12/26 00:41:15;;;;;;;13.77;5.73;;;4.00;99.90;;;;;;5115637;28;20031;-84
2021/12/26 00:43:41;;;;;;;10.17;6.57;;;4.00;99.90;;;;;;5096907;28;20024;-84
2021/12/26 00:46:06;;;;;;;12.13;6.47;;;4.00;99.90;;;;;;5097447;28;20027;-84
2021/12/26 00:48:32;;;;;;;12.03;6.63;;;4.00;99.90;;;;;;5115445;28;20384;-84
2021/12/26 00:50:58;;;;;;;9.77;6.07;;;4.00;99.90;;;;;;5096921;28;20023;-84
2021/12/26 00:53:24;;;;;;;11.43;6.50;;;4.00;99.90;;;;;;5097143;28;20073;-85
2021/12/26 00:55:51;;;;;;;11.20;6.20;;;4.00;99.90;;;;;;5096410;28;20024;-84
2021/12/26 00:58:17;;;;;;;10.23;6.23;;;4.00;99.90;;;;;;5097076;28;20032;-84
2021/12/26 01:00:45;;;;;;;9.70;5.83;;;4.00;99.90;;;;;;5096492;28;20023;-84
2021/12/26 01:03:12;;;;;;;11.70;6.43;;;4.00;99.90;;;;;;5096719;28;20023;-84
2021/12/26 01:05:41;;;;;;;13.17;6.33;;;3.90;99.90;;;;;;5114469;28;20031;-83
2021/12/26 01:08:09;;;;;;;12.23;7.23;;;3.90;99.90;;;;;;5096754;28;20119;-84
2021/12/26 01:10:44;;;;;;;9.60;5.87;;;4.00;99.90;;;;;;5096516;28;20036;-85
2021/12/26 01:13:23;;;;;;;12.17;6.57;;;3.90;99.90;;;;;;5115019;28;20412;-85
2021/12/26 01:15:52;;;;;;;10.20;6.40;;;3.90;99.90;;;;;;5096596;28;20387;-84
2021/12/26 01:18:18;;;;;;;11.37;5.90;;;3.90;99.90;;;;;;5114397;28;20081;-84
2021/12/26 01:20:52;;;;;;;12.00;6.40;;;3.90;99.90;;;;;;5095892;28;20525;-84
2021/12/26 01:23:20;;;;;;;11.03;6.23;;;3.80;99.90;;;;;;5114837;28;20019;-84
2021/12/26 01:25:46;;;;;;;12.00;6.63;;;3.80;99.90;;;;;;5096242;28;20475;-84
2021/12/26 01:28:12;;;;;;;11.77;6.50;;;3.90;99.90;;;;;;5114423;28;20038;-84
2021/12/26 01:30:40;;;;;;;12.30;6.93;;;3.90;99.90;;;;;;5096523;28;20118;-84
2021/12/26 01:33:11;;;;;;;11.17;6.67;;;3.90;99.90;;;;;;5091863;28;20032;-85
2021/12/26 01:35:38;;;;;;;11.10;6.63;;;3.80;99.90;;;;;;5076569;28;20123;-84
2021/12/26 01:38:06;;;;;;;13.17;7.00;;;3.80;99.90;;;;;;5076588;28;20036;-84
2021/12/26 01:40:36;;;;;;;13.07;6.50;;;3.90;99.90;;;;;;5094383;28;20047;-84
2021/12/26 01:43:03;;;;;;;12.20;7.10;;;3.90;99.90;;;;;;5093662;28;20563;-84
2021/12/26 01:45:29;;;;;;;10.37;6.30;;;3.90;99.90;;;;;;5094265;28;20052;-84
2021/12/26 01:47:59;;;;;;;13.40;7.20;;;3.90;99.90;;;;;;5075387;28;20492;-84
2021/12/26 01:50:26;;;;;;;11.53;6.60;;;3.90;99.90;;;;;;5078537;28;20077;-84
2021/12/26 01:52:51;;;;;;;11.50;6.87;;;3.90;99.90;;;;;;5079775;28;20470;-85
2021/12/26 01:55:38;;;;;;;13.27;7.00;;;3.90;99.90;;;;;;5098176;28;20039;-85
2021/12/26 01:58:05;;;;;;;15.77;7.17;;;3.90;99.90;;;;;;5097334;28;20493;-84
2021/12/26 02:00:31;;;;;;;10.63;6.67;;;3.90;99.90;;;;;;5080159;28;20024;-85
2021/12/26 02:02:57;;;;;;;13.27;7.00;;;3.90;99.90;;;;;;5097681;28;20059;-85
2021/12/26 02:05:23;;;;;;;14.37;7.40;;;3.90;99.90;;;;;;5079985;28;20077;-85
2021/12/26 02:07:49;;;;;;;14.10;7.30;;;3.90;99.90;;;;;;5079522;28;20028;-84
2021/12/26 02:10:16;;;;;;;13.47;6.93;;;3.90;99.90;;;;;;5080041;28;20055;-85
2021/12/26 02:12:42;;;;;;;12.43;6.83;;;3.90;99.90;;;;;;5079387;28;20081;-84
2021/12/26 02:15:09;;;;;;;12.70;6.33;;;3.90;99.90;;;;;;5079843;28;20028;-84
2021/12/26 02:17:36;;;;;;;12.47;6.70;;;3.90;99.90;;;;;;5079663;28;20028;-84
2021/12/26 02:20:32;;;;;;;12.07;7.37;;;3.80;99.90;;;;;;5079418;28;20028;-84
2021/12/26 02:23:04;;;;;;;13.43;7.07;;;3.80;99.90;;;;;;5079152;28;20036;-84
2021/12/26 02:27:30;;;;;;;;;;;3.90;99.90;;;;;;5080331;28;20058;-84
2021/12/26 02:28:18;;;;;;;12.30;6.73;;;3.80;99.90;;;;;;5099700;28;20361;-84
2021/12/26 02:30:45;;;;;;;14.43;7.13;;;3.80;99.90;;;;;;5099485;28;20028;-84
2021/12/26 02:33:12;;;;;;;13.20;7.20;;;3.80;99.90;;;;;;5099381;28;20016;-85
2021/12/26 02:35:41;;;;;;;14.80;7.57;;;3.80;99.90;;;;;;5099927;28;20545;-85
2021/12/26 02:38:08;;;;;;;12.97;7.33;;;3.80;99.90;;;;;;5099598;28;20027;-85
2021/12/26 02:40:34;;;;;;;16.10;7.83;;;3.80;99.90;;;;;;5117742;28;20059;-84
2021/12/26 02:43:00;;;;;;;13.73;7.50;;;3.80;99.90;;;;;;5099046;28;20043;-84
2021/12/26 02:45:26;;;;;;;12.90;6.97;;;3.80;99.90;;;;;;5099552;28;20376;-85
2021/12/26 02:47:52;;;;;;;13.47;7.73;;;3.90;99.90;;;;;;5099083;28;20422;-85
2021/12/26 02:50:19;;;;;;;13.60;6.77;;;3.90;99.90;;;;;;5117765;28;20180;-85
2021/12/26 02:52:46;;;;;;;12.57;7.00;;;3.80;99.90;;;;;;5099134;28;20031;-84
2021/12/26 02:55:14;;;;;;;13.63;7.50;;;3.80;99.90;;;;;;5099284;28;20032;-84
2021/12/26 02:57:40;;;;;;;11.83;6.60;;;3.80;99.90;;;;;;5117330;28;20057;-85
2021/12/26 03:00:09;;;;;;;12.87;6.83;;;3.80;99.90;;;;;;5098867;28;20024;-84
2021/12/26 03:02:35;;;;;;;13.60;7.00;;;3.90;99.90;;;;;;5116060;28;20031;-84
2021/12/26 03:05:04;;;;;;;12.70;6.90;;;3.90;99.90;;;;;;5116577;28;20032;-84
2021/12/26 03:07:30;;;;;;;13.80;7.53;;;3.90;99.90;;;;;;5117047;28;20035;-84
2021/12/26 03:09:59;;;;;;;11.97;6.70;;;3.90;99.90;;;;;;5098814;28;20028;-84
2021/12/26 03:12:26;;;;;;;12.90;6.90;;;3.90;99.90;;;;;;5099034;28;20047;-85
2021/12/26 03:14:52;;;;;;;12.23;6.77;;;3.80;99.90;;;;;;5098638;28;20023;-84
2021/12/26 03:17:18;;;;;;;13.23;7.10;;;3.80;99.90;;;;;;5098801;28;20031;-84
2021/12/26 03:19:44;;;;;;;10.77;6.37;;;3.80;99.90;;;;;;5116782;28;20031;-83
2021/12/26 03:22:11;;;;;;;10.97;6.43;;;3.80;99.90;;;;;;5098761;28;20047;-84
2021/12/26 03:24:38;;;;;;;13.13;7.47;;;3.80;99.90;;;;;;5098993;28;20024;-84
2021/12/26 03:27:05;;;;;;;12.10;6.77;;;3.80;99.90;;;;;;5098289;28;20031;-84
2021/12/26 03:29:32;;;;;;;13.77;7.07;;;3.80;99.90;;;;;;5116751;28;20019;-84
2021/12/26 03:31:58;;;;;;;14.83;7.60;;;3.80;99.90;;;;;;5098202;28;20468;-84
2021/12/26 03:34:24;;;;;;;13.30;6.90;;;3.80;99.90;;;;;;5083342;28;20534;-85
2021/12/26 03:36:52;;;;;;;14.00;6.90;;;3.80;99.90;;;;;;5078121;28;20027;-84
2021/12/26 03:39:18;;;;;;;11.40;6.93;;;3.80;99.90;;;;;;5096050;28;20024;-84
2021/12/26 03:41:45;;;;;;;13.00;7.33;;;3.80;99.90;;;;;;5095947;28;20059;-85
2021/12/26 03:44:11;;;;;;;12.13;6.87;;;3.70;99.90;;;;;;5078328;28;20473;-85
2021/12/26 03:46:37;;;;;;;12.67;6.93;;;3.70;99.90;;;;;;5077637;28;20059;-85
2021/12/26 03:49:05;;;;;;;13.10;7.07;;;3.70;99.90;;;;;;5095703;28;20028;-85
2021/12/26 03:51:33;;;;;;;12.77;6.60;;;3.70;99.90;;;;;;5078128;28;20058;-85
2021/12/26 03:54:00;;;;;;;13.23;6.80;;;3.60;99.90;;;;;;5077599;28;20114;-84
2021/12/26 03:56:26;;;;;;;10.77;6.47;;;3.70;99.90;;;;;;5078255;28;20043;-85
2021/12/26 03:58:54;;;;;;;11.40;6.60;;;3.70;99.90;;;;;;5077434;28;20028;-84
2021/12/26 04:01:20;;;;;;;11.50;6.43;;;3.70;99.90;;;;;;5095921;28;20157;-85
2021/12/26 04:03:46;;;;;;;11.13;6.47;;;3.70;99.90;;;;;;5095304;28;20483;-85
2021/12/26 04:06:11;;;;;;;11.80;7.00;;;3.70;99.90;;;;;;5077628;28;20056;-84
2021/12/26 04:08:37;;;;;;;13.10;7.10;;;3.70;99.90;;;;;;5095718;28;20480;-84
2021/12/26 04:11:03;;;;;;;11.27;6.53;;;3.70;99.90;;;;;;5095194;28;20031;-84
2021/12/26 04:13:29;;;;;;;13.93;6.33;;;3.70;99.90;;;;;;5076697;28;20024;-85
2021/12/26 04:15:54;;;;;;;11.43;6.43;;;3.70;99.90;;;;;;5095189;28;20033;-84
2021/12/26 04:18:21;;;;;;;12.03;7.00;;;3.70;99.90;;;;;;5095245;28;20035;-85
2021/12/26 04:20:47;;;;;;;13.80;6.53;;;3.60;99.90;;;;;;5077177;28;20138;-84
2021/12/26 04:23:14;;;;;;;11.77;6.07;;;3.60;99.90;;;;;;5077694;28;20506;-84
2021/12/26 04:25:41;;;;;;;13.37;6.77;;;3.60;99.90;;;;;;5077752;28;20020;-84
2021/12/26 04:28:07;;;;;;;10.80;6.23;;;3.70;99.90;;;;;;5078167;28;20028;-85
2021/12/26 04:30:33;;;;;;;9.93;5.97;;;3.70;99.90;;;;;;5097704;28;20054;-85
2021/12/26 04:33:00;;;;;;;12.70;6.87;;;3.70;99.90;;;;;;5096876;28;20038;-84
2021/12/26 04:35:27;;;;;;;13.77;6.90;;;3.70;99.90;;;;;;5097438;28;20027;-84
2021/12/26 04:37:53;;;;;;;12.87;6.70;;;3.70;99.90;;;;;;5097086;28;20034;-84
2021/12/26 04:40:20;;;;;;;11.83;6.80;;;3.70;99.90;;;;;;5115457;28;20035;-84
2021/12/26 04:42:47;;;;;;;13.23;7.20;;;3.70;99.90;;;;;;5115601;28;20031;-85
2021/12/26 04:45:14;;;;;;;14.13;7.03;;;3.70;99.90;;;;;;5115154;28;20077;-84
2021/12/26 04:47:41;;;;;;;11.47;6.40;;;3.70;99.90;;;;;;5115563;28;20028;-84
2021/12/26 04:50:11;;;;;;;12.80;6.53;;;3.70;99.90;;;;;;5096767;28;20032;-85
2021/12/26 04:52:39;;;;;;;12.27;7.00;;;3.70;99.90;;;;;;5115158;28;20460;-85
2021/12/26 04:55:05;;;;;;;11.60;6.67;;;3.70;99.90;;;;;;5096684;28;20027;-84
2021/12/26 04:57:31;;;;;;;14.23;6.93;;;3.70;99.90;;;;;;5097200;28;20055;-85
2021/12/26 04:59:57;;;;;;;11.70;6.77;;;3.70;99.90;;;;;;5096470;28;20058;-84
2021/12/26 05:02:23;;;;;;;12.00;6.53;;;3.80;99.90;;;;;;5096789;28;20059;-85
2021/12/26 05:04:50;;;;;;;12.20;6.90;;;3.80;99.90;;;;;;5078055;28;20563;-84
2021/12/26 05:07:19;;;;;;;11.87;7.13;;;3.80;99.90;;;;;;5076952;28;20100;-84
2021/12/26 05:09:46;;;;;;;11.10;6.43;;;3.80;99.90;;;;;;5077005;28;20393;-84
2021/12/26 05:12:12;;;;;;;15.17;7.30;;;3.80;99.90;;;;;;5076152;28;20028;-84
2021/12/26 05:14:37;;;;;;;12.33;6.83;;;3.80;99.90;;;;;;5094473;28;20030;-84
2021/12/26 05:17:03;;;;;;;12.90;6.67;;;3.80;99.90;;;;;;5075937;28;20028;-84
2021/12/26 05:19:29;;;;;;;12.63;6.67;;;3.80;99.90;;;;;;5094378;28;20085;-84
2021/12/26 05:21:54;;;;;;;11.93;6.47;;;3.80;99.90;;;;;;5093896;28;20052;-83
2021/12/26 05:24:20;;;;;;;13.93;7.07;;;3.80;99.90;;;;;;5076268;28;20028;-84
2021/12/26 05:26:46;;;;;;;11.83;6.87;;;3.90;99.90;;;;;;5076326;28;20431;-85
2021/12/26 05:29:11;;;;;;;10.33;6.07;;;3.90;99.90;;;;;;5104071;28;20546;-85
2021/12/26 05:31:37;;;;;;;12.77;6.97;;;3.90;99.90;;;;;;5114774;28;20049;-85
2021/12/26 05:34:03;;;;;;;14.20;6.97;;;3.80;99.90;;;;;;5096117;28;20099;-84
2021/12/26 05:36:31;;;;;;;11.47;6.43;;;3.80;99.90;;;;;;5096647;28;20037;-85
2021/12/26 05:38:57;;;;;;;13.13;7.07;;;3.80;99.90;;;;;;5096141;28;20020;-85
2021/12/26 05:41:23;;;;;;;13.80;7.10;;;3.80;99.90;;;;;;5096428;28;20031;-84
2021/12/26 05:43:48;;;;;;;11.23;6.43;;;3.80;99.90;;;;;;5096717;28;20023;-85
2021/12/26 05:46:14;;;;;;;12.50;6.70;;;3.80;99.90;;;;;;5096027;28;20027;-84
2021/12/26 05:48:40;;;;;;;17.13;7.63;;;3.70;99.90;;;;;;5114364;28;20060;-84
2021/12/26 05:51:05;;;;;;;11.87;6.93;;;3.80;99.90;;;;;;5096061;28;20055;-84
2021/12/26 05:53:31;;;;;;;12.80;6.80;;;3.80;99.90;;;;;;5096695;28;20525;-85
2021/12/26 05:55:56;;;;;;;12.27;6.80;;;3.80;99.90;;;;;;5096455;28;20114;-84
2021/12/26 05:58:22;;;;;;;13.60;6.97;;;3.80;99.90;;;;;;5114286;28;20396;-84
2021/12/26 06:00:48;;;;;;;12.10;6.63;;;3.80;99.90;;;;;;5096496;28;20055;-85
2021/12/26 06:03:14;;;;;;;11.60;7.10;;;3.80;99.90;;;;;;5090205;28;20084;-84
2021/12/26 06:05:39;;;;;;;11.77;6.93;;;3.80;99.90;;;;;;5093797;28;20028;-84
2021/12/26 06:08:05;;;;;;;11.23;6.33;;;3.80;99.90;;;;;;5075418;28;20127;-85
2021/12/26 06:10:31;;;;;;;13.13;7.23;;;3.80;99.90;;;;;;5076055;28;20032;-85
2021/12/26 06:12:56;;;;;;;13.77;6.90;;;3.80;99.90;;;;;;5075513;28;20024;-85
2021/12/26 06:15:22;;;;;;;12.30;6.70;;;3.80;99.90;;;;;;5076003;28;20086;-85
2021/12/26 06:17:47;;;;;;;12.33;6.53;;;3.80;99.90;;;;;;5076195;28;20028;-85
2021/12/26 06:20:16;;;;;;;12.43;6.30;;;3.80;99.90;;;;;;5075779;28;20085;-84
2021/12/26 06:22:44;;;;;;;11.23;6.47;;;3.80;99.90;;;;;;5093429;28;20052;-84
2021/12/26 06:25:11;;;;;;;11.60;6.17;;;3.80;99.90;;;;;;5093272;28;20016;-84
2021/12/26 06:27:37;;;;;;;11.63;7.00;;;3.80;99.90;;;;;;5075690;28;20457;-85
2021/12/26 06:30:07;;;;;;;11.90;6.73;;;3.80;99.90;;;;;;5092978;28;20482;-85
2021/12/26 06:32:33;;;;;;;10.80;6.43;;;3.80;99.90;;;;;;5114056;28;20372;-85
2021/12/26 06:35:01;;;;;;;11.70;6.83;;;3.80;99.90;;;;;;5113651;28;20032;-85
2021/12/26 06:37:27;;;;;;;13.07;7.10;;;3.80;99.90;;;;;;5098232;28;20031;-85
2021/12/26 06:39:53;;;;;;;13.77;7.10;;;3.80;99.90;;;;;;5099619;28;20027;-85
2021/12/26 06:42:19;;;;;;;15.47;7.27;;;3.80;99.90;;;;;;5099224;28;20115;-85
2021/12/26 06:44:44;;;;;;;13.47;7.03;;;3.80;99.90;;;;;;5100009;28;20028;-85
2021/12/26 06:47:10;;;;;;;10.47;6.20;;;3.90;99.90;;;;;;5098519;28;20143;-85
2021/12/26 06:49:36;;;;;;;12.03;6.30;;;3.90;99.90;;;;;;5099493;28;20049;-85
2021/12/26 06:52:02;;;;;;;11.90;6.80;;;3.90;99.90;;;;;;5116906;28;20577;-85
2021/12/26 06:54:28;;;;;;;11.20;6.23;;;3.90;99.90;;;;;;5099645;28;20110;-84
2021/12/26 06:56:54;;;;;;;11.30;5.90;;;3.90;99.90;;;;;;5099397;28;20062;-85
2021/12/26 06:59:19;;;;;;;13.13;6.87;;;3.90;99.90;;;;;;5099011;28;20023;-84
2021/12/26 07:01:45;;;;;;;13.93;7.83;;;3.90;99.90;;;;;;5099176;28;20032;-85
2021/12/26 07:04:10;;;;;;;13.17;6.83;;;3.90;99.90;;;;;;5116740;28;20035;-85
2021/12/26 07:06:36;;;;;;;13.00;7.33;;;3.90;99.90;;;;;;5099334;28;20034;-85
2021/12/26 07:09:02;;;;;;;12.80;6.63;;;3.90;99.90;;;;;;5098827;28;20023;-85
2021/12/26 07:11:28;;;;;;;13.23;7.47;;;3.90;99.90;;;;;;5117256;28;20103;-85
2021/12/26 07:13:53;;;;;;;11.47;6.80;;;3.90;99.90;;;;;;5099367;28;20058;-84
2021/12/26 07:16:19;;;;;;;13.77;7.67;;;3.90;99.90;;;;;;5098374;28;20029;-85
2021/12/26 07:18:45;;;;;;;13.00;6.73;;;3.90;99.90;;;;;;5099034;28;20024;-85
2021/12/26 07:21:10;;;;;;;12.27;6.90;;;3.90;99.90;;;;;;5098297;28;20044;-85
2021/12/26 07:23:36;;;;;;;14.77;7.33;;;3.90;99.90;;;;;;5098736;28;20024;-85
2021/12/26 07:26:02;;;;;;;12.77;7.00;;;3.90;99.90;;;;;;5098403;28;20048;-84
2021/12/26 07:28:27;;;;;;;14.97;7.27;;;4.00;99.90;;;;;;5098835;28;20023;-85
2021/12/26 07:30:53;;;;;;;13.30;6.97;;;4.00;99.90;;;;;;5098717;28;20473;-85
2021/12/26 07:33:19;;;;;;;13.97;6.97;;;4.00;99.90;;;;;;5091838;28;20066;-85
2021/12/26 07:35:44;;;;;;;15.90;7.73;;;4.00;99.90;;;;;;5078415;28;20036;-85
2021/12/26 07:38:10;;;;;;;13.30;7.37;;;4.10;99.90;;;;;;5077891;28;20035;-84
2021/12/26 07:40:35;;;;;;;14.53;7.73;;;4.10;99.90;;;;;;5096154;28;20035;-85
2021/12/26 07:43:01;;;;;;;12.47;7.30;;;4.10;99.90;;;;;;5077691;28;20404;-85
2021/12/26 07:45:27;;;;;;;14.90;7.97;;;4.10;99.90;;;;;;5077885;28;20031;-85
2021/12/26 07:47:52;;;;;;;15.60;8.00;;;4.00;99.90;;;;;;5077869;28;20028;-85
2021/12/26 07:50:18;;;;;;;16.27;7.83;;;4.10;99.90;;;;;;5095814;28;20062;-85
2021/12/26 07:52:46;;;;;;;15.43;7.70;;;4.10;99.90;;;;;;5078153;28;20028;-85
2021/12/26 07:55:13;;;;;;;15.57;8.00;;;4.00;99.90;;;;;;5077567;28;20032;-85
2021/12/26 07:57:40;;;;;;;14.50;7.40;;;4.00;99.90;;;;;;5078224;28;20028;-85
2021/12/26 08:00:07;;;;;;;17.27;8.10;;;4.00;99.90;;;;;;5077303;28;20111;-84
2021/12/26 08:02:33;;;;;;;15.87;7.77;;;4.00;99.90;;;;;;5095607;28;20067;-85
2021/12/26 08:04:59;;;;;;;14.50;7.53;;;4.00;99.90;;;;;;5095135;28;20036;-85
2021/12/26 08:07:24;;;;;;;15.03;7.63;;;4.00;99.90;;;;;;5077094;28;20043;-85
2021/12/26 08:09:50;;;;;;;19.53;8.07;;;4.00;99.90;;;;;;5077533;28;20169;-85
2021/12/26 08:12:15;;;;;;;15.93;7.80;;;4.00;99.90;;;;;;5077354;28;20051;-85
2021/12/26 08:14:41;;;;;;;18.57;8.40;;;4.00;99.90;;;;;;5095638;28;20028;-85
2021/12/26 08:17:07;;;;;;;16.60;8.37;;;4.00;99.90;;;;;;5095191;28;20074;-85
2021/12/26 08:19:32;;;;;;;13.47;7.40;;;4.00;99.90;;;;;;5077672;28;20047;-85
2021/12/26 08:22:01;;;;;;;15.27;8.07;;;4.00;99.90;;;;;;5095364;28;20161;-85
2021/12/26 08:24:26;;;;;;;14.83;7.57;;;4.00;99.90;;;;;;5077210;28;20028;-84
2021/12/26 08:26:53;;;;;;;15.47;8.30;;;4.00;99.90;;;;;;5077501;28;20081;-85
2021/12/26 08:29:23;;;;;;;15.40;7.83;;;4.10;99.90;;;;;;5088220;28;20077;-84
2021/12/26 08:31:55;;;;;;;15.23;8.10;;;4.10;99.90;;;;;;5097335;28;20039;-85
2021/12/26 08:34:22;;;;;;;18.40;8.33;;;4.10;99.90;;;;;;5096735;28;20253;-85
2021/12/26 08:36:57;;;;;;;15.97;7.90;;;4.10;99.90;;;;;;5097222;28;20034;-84
2021/12/26 08:39:23;;;;;;;17.20;8.50;;;4.10;99.90;;;;;;5114930;28;20031;-84
2021/12/26 08:41:49;;;;;;;15.40;8.07;;;4.20;99.90;;;;;;5097666;28;20464;-84
2021/12/26 08:44:16;;;;;;;16.40;8.00;;;4.20;99.90;;;;;;5096712;28;20028;-84
2021/12/26 08:46:43;;;;;;;18.17;9.17;;;4.10;99.90;;;;;;5115154;28;20085;-84
2021/12/26 08:49:09;;;;;;;17.50;8.53;;;4.10;99.90;;;;;;5096575;28;20142;-84
2021/12/26 08:51:35;;;;;;;18.20;8.70;;;4.10;99.90;;;;;;5097286;28;20054;-83
2021/12/26 08:54:02;;;;;;;16.57;8.83;;;4.20;99.90;;;;;;5115104;28;20031;-84
2021/12/26 08:56:29;;;;;;;14.17;7.90;;;4.20;99.90;;;;;;5114842;28;20023;-83
2021/12/26 08:58:54;;;;;;;16.90;8.53;;;4.20;99.90;;;;;;5114646;28;20023;-84
2021/12/26 09:01:20;;;;;;;16.10;7.80;;;4.20;99.90;;;;;;5096779;28;20495;-85
2021/12/26 09:03:46;;;;;;;17.40;8.57;;;4.20;99.90;;;;;;5097071;28;20032;-85
2021/12/26 09:06:12;;;;;;;16.23;8.40;;;4.20;99.90;;;;;;5096607;28;20114;-85
2021/12/26 09:08:38;;;;;;;20.80;8.40;;;4.20;99.90;;;;;;5114804;28;20038;-86
2021/12/26 09:11:04;;;;;;;15.67;8.53;;;4.20;99.90;;;;;;5096546;28;20134;-83
2021/12/26 09:13:29;;;;;;;15.73;7.67;;;4.20;99.90;;;;;;5096731;28;20051;-85
2021/12/26 09:15:55;;;;;;;18.70;8.60;;;4.30;99.90;;;;;;5096745;28;20020;-85
2021/12/26 09:18:21;;;;;;;15.13;7.97;;;4.30;99.90;;;;;;5096611;28;20027;-85
2021/12/26 09:20:49;;;;;;;18.17;7.97;;;4.30;99.90;;;;;;5114421;28;20104;-84
2021/12/26 09:23:15;;;;;;;17.43;9.07;;;4.30;99.90;;;;;;5114603;28;20511;-86
2021/12/26 09:25:41;;;;;;;18.67;8.97;;;4.40;99.90;;;;;;5096888;28;20019;-85
2021/12/26 09:28:06;;;;;;;16.73;8.50;;;4.40;99.90;;;;;;5098435;28;20030;-86
2021/12/26 09:30:32;;;;;;;19.37;8.63;;;4.40;99.90;;;;;;5096441;28;20027;-85
2021/12/26 09:32:58;;;;;;;16.67;8.13;;;4.40;99.90;;;;;;5093073;28;20032;-85
2021/12/26 09:35:23;;;;;;;19.00;8.63;;;4.50;99.90;;;;;;5075901;28;20032;-84
2021/12/26 09:37:49;;;;;;;17.10;8.37;;;4.50;99.90;;;;;;5076544;28;20062;-84
2021/12/26 09:40:16;;;;;;;16.30;8.60;;;4.50;99.90;;;;;;5093650;28;20032;-84
2021/12/26 09:42:43;;;;;;;19.13;8.83;;;4.50;99.90;;;;;;5076321;28;20107;-84
2021/12/26 09:45:10;;;;;;;17.77;8.63;;;4.50;99.90;;;;;;5075846;28;20028;-85
2021/12/26 09:47:41;;;;;;;16.30;8.57;;;4.50;99.90;;;;;;5076280;28;20079;-85
2021/12/26 09:50:09;;;;;;;16.73;8.53;;;4.60;99.90;;;;;;5076059;28;20506;-84
2021/12/26 09:52:35;;;;;;;15.50;8.07;;;4.60;99.90;;;;;;5076178;28;20028;-85
2021/12/26 09:55:01;;;;;;;18.33;8.20;;;4.50;99.90;;;;;;5094143;28;20028;-86
2021/12/26 09:57:28;;;;;;;17.17;8.87;;;4.60;99.90;;;;;;5093622;28;20081;-86
2021/12/26 09:59:55;;;;;;;14.90;8.33;;;4.60;99.90;;;;;;5075980;28;20055;-84
2021/12/26 10:02:20;;;;;;;19.50;9.00;;;4.60;99.90;;;;;;5075798;28;20024;-83
2021/12/26 10:04:48;;;;;;;16.43;8.80;;;4.60;99.90;;;;;;5075671;28;20039;-84
2021/12/26 10:07:17;;;;;;;14.37;8.03;;;4.70;99.90;;;;;;5075367;28;20032;-85
2021/12/26 10:09:46;;;;;;;16.63;8.90;;;4.70;99.90;;;;;;5076302;28;20024;-85
2021/12/26 10:12:13;;;;;;;17.93;9.07;;;4.70;99.90;;;;;;5095847;28;20047;-85
2021/12/26 10:14:40;;;;;;;18.00;8.83;;;4.70;99.90;;;;;;5079986;28;20028;-84
2021/12/26 10:17:09;;;;;;;16.43;8.77;;;4.70;99.90;;;;;;5079881;28;20182;-84
2021/12/26 10:19:37;;;;;;;16.10;9.00;;;4.70;99.90;;;;;;5079411;28;20020;-83
2021/12/26 10:22:04;;;;;;;16.23;9.03;;;4.70;99.90;;;;;;5097101;28;20048;-84
2021/12/26 10:24:31;;;;;;;17.23;9.07;;;4.80;99.90;;;;;;5079193;28;20028;-84
2021/12/26 10:27:15;;;;;;;16.60;8.90;;;4.80;99.90;;;;;;5079545;28;20081;-84
2021/12/26 10:29:43;;;;;;;16.93;8.93;;;4.90;99.90;;;;;;5094166;28;20123;-83
2021/12/26 10:32:20;;;;;;;16.23;9.10;;;4.90;99.90;;;;;;5117685;28;20493;-83
2021/12/26 10:34:50;;;;;;;17.17;9.17;;;4.80;99.90;;;;;;5099568;28;20127;-84
2021/12/26 10:37:38;;;;;;;17.07;8.60;;;4.90;99.90;;;;;;5117256;28;20083;-85
2021/12/26 10:40:11;;;;;;;19.17;9.70;;;4.90;99.90;;;;;;5099723;28;20027;-85
2021/12/26 10:42:40;;;;;;;18.93;9.53;;;4.90;99.90;;;;;;5099457;28;20067;-85
2021/12/26 10:45:09;;;;;;;17.47;8.50;;;4.90;99.90;;;;;;5117355;28;20030;-85
2021/12/26 10:47:38;;;;;;;17.33;8.73;;;4.90;99.90;;;;;;5099236;28;20027;-86
2021/12/26 10:50:11;;;;;;;17.63;8.30;;;4.90;99.90;;;;;;5117114;28;20113;-86
2021/12/26 10:53:02;;;;;;;17.73;9.00;;;4.90;99.90;;;;;;5099205;28;20039;-85
2021/12/26 10:55:32;;;;;;;17.90;9.00;;;5.00;99.90;;;;;;5116055;28;20063;-85
2021/12/26 10:58:00;;;;;;;19.67;8.73;;;5.00;99.90;;;;;;5099183;28;20034;-85
2021/12/26 11:00:33;;;;;;;18.17;9.43;;;5.00;99.90;;;;;;5116894;28;20024;-85
2021/12/26 11:03:22;;;;;;;19.50;9.30;;;5.10;99.90;;;;;;5098460;28;20031;-85
2021/12/26 11:05:50;;;;;;;17.50;8.60;;;5.10;99.90;;;;;;5098782;28;20031;-85
2021/12/26 11:08:24;;;;;;;16.30;8.27;;;5.10;99.90;;;;;;5098360;28;20028;-84
2021/12/26 11:10:54;;;;;;;18.90;9.40;;;5.10;99.90;;;;;;5117534;28;20027;-86
2021/12/26 11:13:27;;;;;;;18.87;9.27;;;5.10;99.90;;;;;;5098599;28;20037;-86
2021/12/26 11:16:08;;;;;;;21.30;10.30;;;5.10;99.90;;;;;;5098863;28;20023;-86
2021/12/26 11:18:36;;;;;;;20.17;10.37;;;5.10;99.90;;;;;;5098362;28;20077;-86
2021/12/26 11:21:08;;;;;;;18.10;9.47;;;5.10;99.90;;;;;;5098688;28;20071;-86
2021/12/26 11:23:35;;;;;;;;;;;5.10;99.90;;;;;;5097865;28;20202;-86
2021/12/26 11:26:06;;;;;;;17.43;8.67;;;5.10;99.90;;;;;;5098826;28;20085;-86
2021/12/26 11:28:35;;;;;;;20.02;9.32;;;5.10;99.90;;;;;;5117557;28;20468;-86
2021/12/26 11:31:23;;;;;;;17.87;9.10;;;5.10;99.90;;;;;;5099006;28;20046;-85
2021/12/26 11:33:54;;;;;;;17.67;9.07;;;5.20;99.90;;;;;;4995199;28;20031;-85
2021/12/26 11:36:20;;;;;;;19.50;9.80;;;5.20;99.90;;;;;;4995465;28;20038;-86
2021/12/26 11:38:48;;;;;;;24.23;10.17;;;5.20;99.90;;;;;;4980028;28;20030;-86
2021/12/26 11:41:32;;;;;;;19.63;10.70;;;5.20;99.90;;;;;;4978494;28;20053;-86
2021/12/26 11:44:19;;;;;;;25.30;10.33;;;5.20;99.90;;;;;;4980075;28;20053;-86
2021/12/26 11:47:09;;;;;;;19.43;9.87;;;5.20;99.90;;;;;;4980324;28;20115;-86
2021/12/26 11:50:08;;;;;;;22.93;10.17;;;5.20;99.90;;;;;;4978887;28;20125;-86
2021/12/26 11:53:24;;;;;;;20.97;10.10;;;5.30;99.90;;;;;;4978664;28;20046;-86
2021/12/26 11:56:01;;;;;;;22.10;10.03;;;5.30;99.90;;;;;;4971054;28;20030;-85
2021/12/26 11:58:51;;;;;;;21.83;10.17;;;5.30;99.90;;;;;;4978495;28;20459;-84
2021/12/26 12:01:19;;;;;;;22.70;10.40;;;5.30;99.90;;;;;;4978127;28;20483;-85
2021/12/26 12:03:45;;;;;;;18.77;9.27;;;5.30;99.90;;;;;;5003670;28;20045;-84
2021/12/26 12:06:26;;;;;;;21.93;10.33;;;5.30;99.90;;;;;;4998052;28;20084;-85
2021/12/26 12:08:54;;;;;;;22.33;10.30;;;5.40;99.90;;;;;;5013888;28;20041;-86
2021/12/26 12:11:20;;;;;;;20.93;10.47;;;5.40;99.90;;;;;;5068825;28;20257;-85
2021/12/26 12:13:46;;;;;;;21.13;10.03;;;5.40;99.90;;;;;;5077760;28;20481;-85
2021/12/26 12:16:28;;;;;;;19.97;10.80;;;5.40;99.90;;;;;;5077503;28;20024;-85
2021/12/26 12:18:57;;;;;;;18.58;9.68;;;5.40;99.90;;;;;;5095522;28;20047;-85
2021/12/26 12:21:44;;;;;;;21.27;10.40;;;5.40;99.90;;;;;;5073066;28;20129;-85
2021/12/26 12:24:16;;;;;;;21.07;10.17;;;5.40;99.90;;;;;;5074074;28;20024;-85
2021/12/26 12:26:47;;;;;;;;;;;5.40;99.90;;;;;;5074253;28;20032;-85
2021/12/26 12:29:39;;;;;;;22.05;10.23;;;5.50;99.90;;;;;;5074243;28;19912;-85
2021/12/26 12:32:09;;;;;;;25.43;11.00;;;5.40;99.90;;;;;;5057266;28;20059;-85
2021/12/26 12:35:01;;;;;;;17.87;10.07;;;5.50;99.90;;;;;;5089980;28;20072;-85
2021/12/26 12:37:41;;;;;;;22.50;10.53;;;5.50;99.90;;;;;;5094572;28;20024;-85
2021/12/26 12:40:16;;;;;;;24.40;11.03;;;5.50;99.90;;;;;;5094136;28;20026;-85
2021/12/26 12:42:58;;;;;;;24.07;11.13;;;5.50;99.90;;;;;;5094248;28;20039;-86
2021/12/26 12:45:24;;;;;;;;;;;5.40;99.90;;;;;;5094911;28;20597;-85
2021/12/26 12:48:22;;;;;;;21.23;10.27;;;5.40;99.90;;;;;;5093958;28;20010;-85
2021/12/26 12:50:47;;;;;;;26.17;11.67;;;5.40;99.90;;;;;;5093759;28;20369;-85
2021/12/26 12:53:40;;;;;;;21.93;11.27;;;5.50;99.90;;;;;;5094995;28;20028;-85
2021/12/26 12:56:07;;;;;;;26.27;11.70;;;5.40;99.90;;;;;;5094814;28;20535;-85